createdAt,value
2022-09-23T00:00:39.529Z,71.70
2022-09-23T00:01:39.883Z,72.21
2022-09-23T00:02:40.108Z,72.62
2022-09-23T00:03:40.363Z,72.72
2022-09-23T00:04:40.657Z,72.82
2022-09-23T00:05:41.129Z,73.02
2022-09-23T00:06:41.364Z,73.77
2022-09-23T00:07:41.508Z,74.38
2022-09-23T00:08:41.832Z,75.09
2022-09-23T00:09:42.148Z,75.50
2022-09-23T00:10:42.449Z,75.81
2022-09-23T00:11:42.808Z,76.31
2022-09-23T00:12:43.112Z,76.62
2022-09-23T00:13:43.434Z,76.72
2022-09-23T00:14:43.717Z,76.62
2022-09-23T00:15:44.018Z,76.92
2022-09-23T00:16:44.387Z,77.33
2022-09-23T00:17:44.566Z,77.23
2022-09-23T00:18:44.857Z,77.44
2022-09-23T00:19:45.053Z,77.84
2022-09-23T00:20:45.414Z,77.94
2022-09-23T00:21:45.763Z,78.05
2022-09-23T00:22:45.935Z,78.35
2022-09-23T00:23:46.248Z,78.76
2022-09-23T00:24:46.561Z,78.76
2022-09-23T00:25:46.911Z,78.55
2022-09-23T00:26:47.087Z,78.45
2022-09-23T00:27:47.416Z,78.15
2022-09-23T00:28:47.684Z,77.53
2022-09-23T00:29:48.043Z,76.82
2022-09-23T00:30:48.366Z,77.64
2022-09-23T00:31:48.562Z,77.84
2022-09-23T00:32:48.875Z,77.23
2022-09-23T00:33:49.183Z,77.44
2022-09-23T00:34:49.516Z,77.84
2022-09-23T00:35:49.789Z,77.33
2022-09-23T00:36:50.033Z,78.25
2022-09-23T00:37:50.237Z,79.00
2022-09-23T00:38:50.559Z,78.89
2022-09-23T00:39:50.826Z,79.00
2022-09-23T00:40:51.260Z,79.50
2022-09-23T00:41:51.460Z,79.81
2022-09-23T00:42:51.814Z,79.41
2022-09-23T00:43:51.975Z,79.50
2022-09-23T00:44:52.281Z,79.61
2022-09-23T00:45:52.641Z,79.71
2022-09-23T00:46:52.829Z,79.91
2022-09-23T00:47:53.300Z,79.50
2022-09-23T00:48:53.460Z,79.41
2022-09-23T00:49:53.771Z,79.41
2022-09-23T00:50:54.069Z,79.50
2022-09-23T00:51:54.447Z,79.71
2022-09-23T00:52:54.721Z,79.61
2022-09-23T00:53:54.890Z,79.61
2022-09-23T00:54:55.351Z,79.30
2022-09-23T00:55:55.515Z,79.10
2022-09-23T00:56:55.802Z,79.44
2022-09-23T00:57:56.140Z,79.24
2022-09-23T00:58:56.430Z,79.24
2022-09-23T00:59:56.745Z,79.14
2022-09-23T01:00:57.095Z,79.14
2022-09-23T01:01:57.485Z,79.24
2022-09-23T01:02:57.623Z,79.14
2022-09-23T01:03:57.914Z,79.24
2022-09-23T01:04:58.214Z,79.14
2022-09-23T01:05:58.489Z,79.44
2022-09-23T01:06:58.861Z,79.85
2022-09-23T01:07:59.069Z,79.85
2022-09-23T01:08:59.479Z,79.95
2022-09-23T01:09:59.636Z,80.05
2022-09-23T01:11:00.060Z,80.16
2022-09-23T01:12:00.216Z,80.26
2022-09-23T01:13:00.639Z,80.26
2022-09-23T01:14:00.852Z,80.26
2022-09-23T01:15:01.205Z,80.46
2022-09-23T01:16:01.520Z,80.56
2022-09-23T01:17:01.877Z,80.56
2022-09-23T01:18:02.131Z,80.56
2022-09-23T01:19:02.498Z,80.16
2022-09-23T01:20:02.767Z,80.16
2022-09-23T01:21:03.119Z,80.26
2022-09-23T01:22:03.412Z,79.95
2022-09-23T01:23:03.714Z,79.64
2022-09-23T01:24:03.998Z,79.64
2022-09-23T01:25:04.299Z,79.64
2022-09-23T01:26:04.668Z,79.44
2022-09-23T01:27:04.829Z,79.24
2022-09-23T01:28:05.149Z,79.24
2022-09-23T01:29:05.439Z,79.14
2022-09-23T01:30:05.847Z,79.14
2022-09-23T01:31:06.303Z,79.03
2022-09-23T01:32:06.427Z,78.93
2022-09-23T01:33:06.722Z,79.03
2022-09-23T01:34:07.049Z,79.24
2022-09-23T01:35:07.343Z,79.44
2022-09-23T01:36:07.748Z,79.68
2022-09-23T01:37:07.927Z,79.99
2022-09-23T01:38:08.207Z,79.99
2022-09-23T01:39:08.564Z,79.89
2022-09-23T01:40:08.858Z,79.99
2022-09-23T01:41:09.206Z,80.29
2022-09-23T01:42:09.520Z,80.50
2022-09-23T01:43:09.836Z,80.50
2022-09-23T01:44:10.127Z,80.60
2022-09-23T01:45:10.401Z,80.91
2022-09-23T01:46:10.683Z,81.11
2022-09-23T01:47:11.074Z,81.31
2022-09-23T01:48:11.355Z,81.41
2022-09-23T01:49:11.541Z,81.41
2022-09-23T01:50:11.870Z,81.31
2022-09-23T01:51:12.167Z,81.41
2022-09-23T01:52:12.466Z,81.72
2022-09-23T01:53:12.788Z,82.03
2022-09-23T01:54:13.124Z,82.13
2022-09-23T01:55:13.426Z,82.37
2022-09-23T01:56:13.727Z,82.37
2022-09-23T01:57:14.042Z,82.78
2022-09-23T01:58:14.242Z,82.84
2022-09-23T01:59:14.892Z,82.88
2022-09-23T02:00:14.874Z,82.94
2022-09-23T02:01:15.284Z,82.94
2022-09-23T02:02:15.491Z,83.15
2022-09-23T02:03:15.671Z,83.25
2022-09-23T02:04:16.006Z,83.29
2022-09-23T02:05:16.245Z,83.39
2022-09-23T02:06:16.548Z,83.59
2022-09-23T02:07:16.829Z,83.90
2022-09-23T02:08:17.178Z,84.11
2022-09-23T02:09:17.403Z,84.41
2022-09-23T02:10:17.697Z,84.61
2022-09-23T02:11:18.021Z,84.61
2022-09-23T02:12:18.344Z,84.72
2022-09-23T02:13:18.597Z,84.92
2022-09-23T02:14:18.788Z,85.13
2022-09-23T02:15:19.102Z,85.22
2022-09-23T02:16:19.462Z,85.02
2022-09-23T02:17:19.728Z,85.02
2022-09-23T02:18:20.054Z,85.02
2022-09-23T02:19:20.407Z,85.22
2022-09-23T02:20:20.662Z,85.33
2022-09-23T02:21:20.997Z,85.33
2022-09-23T02:22:21.362Z,85.02
2022-09-23T02:23:21.660Z,84.82
2022-09-23T02:24:21.960Z,84.82
2022-09-23T02:25:22.237Z,84.45
2022-09-23T02:26:22.548Z,84.34
2022-09-23T02:27:22.831Z,84.34
2022-09-23T02:28:23.148Z,84.14
2022-09-23T02:29:23.513Z,84.04
2022-09-23T02:30:23.801Z,83.94
2022-09-23T02:31:24.209Z,83.94
2022-09-23T02:32:24.351Z,84.25
2022-09-23T02:33:24.715Z,84.14
2022-09-23T02:34:24.984Z,84.25
2022-09-23T02:35:25.331Z,84.04
2022-09-23T02:36:26.035Z,84.04
2022-09-23T02:37:25.891Z,84.34
2022-09-23T02:38:26.197Z,84.45
2022-09-23T02:39:26.523Z,84.04
2022-09-23T02:40:26.871Z,84.28
2022-09-23T02:41:27.207Z,84.18
2022-09-23T02:42:27.474Z,84.69
2022-09-23T02:43:27.761Z,84.69
2022-09-23T02:44:28.082Z,84.90
2022-09-23T02:45:28.397Z,85.00
2022-09-23T02:46:28.687Z,85.10
2022-09-23T02:47:28.920Z,85.30
2022-09-23T02:48:29.203Z,85.00
2022-09-23T02:49:29.467Z,84.90
2022-09-23T02:50:29.770Z,85.00
2022-09-23T02:51:29.987Z,85.30
2022-09-23T02:52:30.309Z,85.41
2022-09-23T02:53:30.649Z,85.41
2022-09-23T02:54:30.993Z,85.30
2022-09-23T02:55:31.327Z,85.10
2022-09-23T02:56:31.638Z,85.21
2022-09-23T02:57:31.930Z,85.30
2022-09-23T02:58:32.281Z,85.30
2022-09-23T02:59:33.118Z,85.41
2022-09-23T03:00:32.800Z,85.41
2022-09-23T03:01:33.028Z,85.41
2022-09-23T03:02:33.409Z,85.41
2022-09-23T03:03:33.702Z,85.30
2022-09-23T03:04:34.399Z,85.21
2022-09-23T03:05:34.210Z,85.21
2022-09-23T03:06:34.543Z,85.21
2022-09-23T03:07:34.941Z,85.10
2022-09-23T03:08:35.346Z,85.10
2022-09-23T03:09:35.576Z,85.10
2022-09-23T03:10:35.777Z,85.30
2022-09-23T03:11:36.354Z,85.41
2022-09-23T03:12:36.319Z,85.51
2022-09-23T03:13:36.605Z,85.10
2022-09-23T03:14:36.868Z,84.80
2022-09-23T03:15:37.068Z,84.28
2022-09-23T03:16:37.386Z,84.28
2022-09-23T03:17:37.646Z,84.39
2022-09-23T03:18:37.963Z,84.42
2022-09-23T03:19:38.333Z,84.49
2022-09-23T03:20:38.529Z,84.39
2022-09-23T03:21:38.805Z,84.83
2022-09-23T03:22:39.135Z,85.04
2022-09-23T03:23:39.500Z,84.83
2022-09-23T03:24:39.727Z,84.94
2022-09-23T03:25:40.033Z,85.04
2022-09-23T03:26:40.351Z,84.94
2022-09-23T03:27:40.632Z,84.74
2022-09-23T03:28:40.921Z,84.53
2022-09-23T03:29:41.347Z,84.42
2022-09-23T03:30:41.643Z,84.22
2022-09-23T03:31:42.052Z,84.42
2022-09-23T03:32:42.320Z,84.63
2022-09-23T03:33:42.507Z,84.53
2022-09-23T03:34:42.789Z,84.53
2022-09-23T03:35:43.169Z,84.63
2022-09-23T03:36:43.462Z,84.83
2022-09-23T03:37:43.704Z,84.94
2022-09-23T03:38:43.988Z,84.94
2022-09-23T03:39:44.236Z,85.04
2022-09-23T03:40:44.632Z,85.14
2022-09-23T03:41:44.825Z,85.35
2022-09-23T03:42:45.095Z,85.49
2022-09-23T03:43:45.412Z,85.65
2022-09-23T03:44:45.802Z,85.79
2022-09-23T03:45:46.025Z,86.10
2022-09-23T03:46:46.222Z,86.20
2022-09-23T03:47:46.567Z,86.30
2022-09-23T03:48:46.940Z,86.71
2022-09-23T03:49:47.157Z,87.02
2022-09-23T03:50:47.439Z,87.23
2022-09-23T03:51:47.795Z,87.32
2022-09-23T03:52:48.120Z,87.12
2022-09-23T03:53:48.460Z,86.91
2022-09-23T03:54:48.838Z,86.91
2022-09-23T03:55:49.041Z,86.71
2022-09-23T03:56:49.274Z,86.41
2022-09-23T03:57:49.604Z,86.41
2022-09-23T03:58:49.873Z,86.30
2022-09-23T03:59:50.207Z,86.24
2022-09-23T04:00:50.586Z,86.35
2022-09-23T04:01:50.812Z,86.14
2022-09-23T04:02:51.065Z,86.14
2022-09-23T04:03:51.374Z,86.14
2022-09-23T04:04:51.604Z,86.14
2022-09-23T04:05:51.920Z,86.14
2022-09-23T04:06:52.061Z,85.79
2022-09-23T04:07:52.407Z,85.59
2022-09-23T04:08:52.686Z,85.49
2022-09-23T04:09:53.082Z,85.38
2022-09-23T04:10:55.001Z,85.38
2022-09-23T04:11:53.588Z,85.38
2022-09-23T04:12:53.915Z,85.38
2022-09-23T04:13:54.143Z,85.38
2022-09-23T04:14:54.528Z,85.38
2022-09-23T04:15:54.809Z,85.28
2022-09-23T04:16:55.009Z,85.63
2022-09-23T04:17:55.362Z,85.83
2022-09-23T04:18:55.664Z,85.73
2022-09-23T04:19:56.395Z,85.73
2022-09-23T04:20:56.207Z,85.63
2022-09-23T04:21:56.439Z,85.63
2022-09-23T04:22:56.727Z,85.63
2022-09-23T04:23:56.961Z,85.63
2022-09-23T04:24:57.270Z,85.53
2022-09-23T04:25:57.582Z,85.42
2022-09-23T04:26:57.854Z,85.32
2022-09-23T04:27:58.134Z,85.12
2022-09-23T04:28:58.471Z,85.22
2022-09-23T04:29:58.751Z,85.22
2022-09-23T04:30:58.982Z,85.32
2022-09-23T04:31:59.520Z,85.42
2022-09-23T04:32:59.664Z,85.42
2022-09-23T04:33:59.921Z,85.53
2022-09-23T04:35:00.232Z,85.53
2022-09-23T04:36:00.522Z,85.63
2022-09-23T04:37:00.906Z,85.63
2022-09-23T04:38:01.225Z,85.88
2022-09-23T04:39:01.943Z,86.08
2022-09-23T04:40:01.779Z,86.14
2022-09-23T04:41:02.044Z,86.29
2022-09-23T04:42:02.309Z,86.49
2022-09-23T04:43:02.691Z,86.59
2022-09-23T04:44:02.825Z,86.44
2022-09-23T04:45:03.119Z,86.44
2022-09-23T04:46:03.420Z,86.35
2022-09-23T04:47:03.784Z,86.14
2022-09-23T04:48:04.082Z,86.14
2022-09-23T04:49:04.315Z,86.14
2022-09-23T04:50:04.642Z,86.04
2022-09-23T04:51:05.031Z,85.88
2022-09-23T04:52:05.400Z,85.73
2022-09-23T04:53:05.490Z,85.22
2022-09-23T04:54:05.730Z,84.85
2022-09-23T04:55:09.183Z,84.85
2022-09-23T04:56:07.218Z,84.85
2022-09-23T04:57:06.465Z,84.75
2022-09-23T04:58:06.791Z,84.75
2022-09-23T04:59:07.309Z,84.55
2022-09-23T05:00:07.427Z,84.44
2022-09-23T05:01:07.943Z,84.44
2022-09-23T05:02:08.041Z,84.44
2022-09-23T05:03:08.222Z,84.34
2022-09-23T05:04:08.639Z,84.24
2022-09-23T05:05:09.065Z,84.24
2022-09-23T05:06:09.203Z,84.14
2022-09-23T05:07:09.426Z,84.14
2022-09-23T05:08:09.660Z,84.24
2022-09-23T05:09:10.068Z,84.14
2022-09-23T05:10:10.279Z,84.03
2022-09-23T05:11:10.545Z,84.34
2022-09-23T05:12:10.864Z,84.24
2022-09-23T05:13:11.236Z,84.24
2022-09-23T05:14:11.485Z,83.93
2022-09-23T05:15:11.752Z,83.83
2022-09-23T05:16:12.106Z,83.83
2022-09-23T05:17:12.271Z,84.03
2022-09-23T05:18:12.516Z,84.24
2022-09-23T05:19:12.796Z,84.34
2022-09-23T05:20:13.092Z,84.34
2022-09-23T05:21:13.316Z,84.44
2022-09-23T05:22:13.651Z,84.55
2022-09-23T05:23:13.948Z,84.44
2022-09-23T05:24:14.216Z,84.34
2022-09-23T05:25:14.479Z,84.14
2022-09-23T05:26:14.780Z,83.93
2022-09-23T05:27:14.999Z,83.73
2022-09-23T05:28:15.231Z,83.42
2022-09-23T05:29:15.538Z,83.11
2022-09-23T05:30:15.703Z,83.22
2022-09-23T05:31:19.998Z,83.42
2022-09-23T05:32:16.241Z,83.52
2022-09-23T05:33:16.490Z,83.52
2022-09-23T05:34:16.757Z,83.42
2022-09-23T05:35:16.987Z,83.22
2022-09-23T05:36:17.390Z,83.11
2022-09-23T05:37:17.649Z,83.11
2022-09-23T05:38:17.892Z,83.11
2022-09-23T05:39:18.162Z,83.11
2022-09-23T05:40:18.436Z,83.22
2022-09-23T05:41:18.795Z,83.11
2022-09-23T05:42:19.020Z,82.91
2022-09-23T05:43:19.316Z,83.11
2022-09-23T05:44:20.055Z,83.42
2022-09-23T05:45:19.829Z,83.59
2022-09-23T05:46:20.095Z,83.62
2022-09-23T05:47:20.320Z,83.52
2022-09-23T05:48:20.599Z,83.73
2022-09-23T05:49:29.554Z,83.73
2022-09-23T05:50:22.120Z,83.93
2022-09-23T05:51:21.400Z,84.03
2022-09-23T05:52:21.655Z,84.03
2022-09-23T05:53:21.894Z,84.03
2022-09-23T05:54:22.161Z,84.14
2022-09-23T05:55:22.416Z,84.14
2022-09-23T05:56:22.675Z,84.03
2022-09-23T05:57:22.985Z,83.79
2022-09-23T05:58:23.193Z,83.59
2022-09-23T05:59:23.434Z,83.28
2022-09-23T06:00:23.686Z,83.38
2022-09-23T06:01:23.942Z,83.38
2022-09-23T06:02:24.277Z,83.28
2022-09-23T06:03:24.603Z,83.07
2022-09-23T06:04:24.785Z,82.97
2022-09-23T06:05:25.026Z,82.97
2022-09-23T06:06:25.290Z,83.07
2022-09-23T06:07:25.554Z,83.07
2022-09-23T06:08:25.796Z,82.93
2022-09-23T06:09:26.011Z,82.93
2022-09-23T06:10:26.367Z,82.97
2022-09-23T06:11:26.645Z,83.18
2022-09-23T06:12:26.927Z,83.18
2022-09-23T06:13:27.171Z,83.28
2022-09-23T06:14:27.416Z,83.38
2022-09-23T06:15:27.655Z,83.59
2022-09-23T06:16:27.958Z,83.48
2022-09-23T06:17:28.187Z,83.18
2022-09-23T06:18:28.489Z,83.14
2022-09-23T06:19:28.756Z,82.83
2022-09-23T06:20:29.051Z,82.73
2022-09-23T06:21:29.329Z,82.53
2022-09-23T06:22:29.571Z,82.42
2022-09-23T06:23:29.811Z,81.71
2022-09-23T06:24:31.651Z,81.51
2022-09-23T06:25:30.422Z,81.71
2022-09-23T06:26:30.658Z,81.81
2022-09-23T06:27:30.961Z,81.71
2022-09-23T06:28:31.259Z,81.71
2022-09-23T06:29:31.562Z,81.67
2022-09-23T06:30:31.794Z,81.57
2022-09-23T06:31:32.118Z,80.85
2022-09-23T06:32:32.348Z,80.14
2022-09-23T06:33:37.136Z,79.83
2022-09-23T06:34:43.547Z,79.93
2022-09-23T06:35:34.134Z,80.04
2022-09-23T06:36:42.752Z,79.93
2022-09-23T06:37:34.705Z,79.73
2022-09-23T06:38:33.972Z,79.22
2022-09-23T06:39:34.226Z,79.32
2022-09-23T06:40:34.517Z,79.32
2022-09-23T06:41:34.774Z,79.52
2022-09-23T06:42:35.291Z,79.73
2022-09-23T06:43:35.314Z,79.77
2022-09-23T06:44:35.757Z,80.07
2022-09-23T06:45:35.968Z,79.97
2022-09-23T06:46:36.252Z,79.66
2022-09-23T06:47:36.463Z,79.66
2022-09-23T06:48:36.696Z,79.77
2022-09-23T06:49:36.950Z,79.83
2022-09-23T06:50:37.221Z,79.83
2022-09-23T06:51:37.454Z,79.52
2022-09-23T06:52:37.673Z,79.43
2022-09-23T06:53:38.118Z,79.52
2022-09-23T06:54:38.301Z,79.63
2022-09-23T06:55:38.587Z,79.43
2022-09-23T06:56:39.797Z,79.32
2022-09-23T06:57:39.116Z,79.63
2022-09-23T06:58:39.315Z,79.49
2022-09-23T06:59:39.604Z,79.18
2022-09-23T07:00:39.977Z,78.98
2022-09-23T07:01:40.202Z,78.57
2022-09-23T07:02:40.611Z,78.37
2022-09-23T07:03:40.756Z,78.12
2022-09-23T07:04:41.004Z,77.62
2022-09-23T07:05:41.255Z,77.21
2022-09-23T07:06:41.522Z,77.11
2022-09-23T07:07:41.778Z,77.00
2022-09-23T07:08:42.492Z,77.21
2022-09-23T07:09:42.302Z,77.11
2022-09-23T07:10:42.552Z,77.11
2022-09-23T07:11:42.784Z,77.34
2022-09-23T07:12:43.023Z,77.21
2022-09-23T07:13:43.731Z,77.34
2022-09-23T07:14:43.554Z,77.31
2022-09-23T07:15:43.951Z,77.41
2022-09-23T07:16:44.146Z,77.21
2022-09-23T07:17:44.533Z,76.90
2022-09-23T07:18:44.787Z,77.00
2022-09-23T07:19:45.095Z,77.11
2022-09-23T07:20:45.830Z,77.11
2022-09-23T07:21:45.701Z,77.11
2022-09-23T07:22:45.939Z,77.00
2022-09-23T07:23:46.208Z,76.80
2022-09-23T07:24:46.457Z,76.59
2022-09-23T07:25:46.757Z,76.29
2022-09-23T07:26:47.004Z,76.09
2022-09-23T07:27:47.230Z,76.09
2022-09-23T07:28:47.530Z,76.15
2022-09-23T07:29:49.011Z,75.88
2022-09-23T07:30:57.799Z,76.29
2022-09-23T07:31:49.320Z,76.35
2022-09-23T07:32:49.330Z,76.15
2022-09-23T07:33:48.846Z,75.85
2022-09-23T07:34:49.121Z,75.44
2022-09-23T07:35:49.374Z,75.34
2022-09-23T07:36:49.609Z,75.34
2022-09-23T07:37:49.841Z,75.44
2022-09-23T07:38:50.196Z,75.23
2022-09-23T07:39:50.428Z,75.30
2022-09-23T07:40:50.707Z,75.20
2022-09-23T07:41:50.938Z,74.65
2022-09-23T07:42:51.192Z,74.25
2022-09-23T07:43:51.467Z,73.94
2022-09-23T07:44:51.765Z,73.94
2022-09-23T07:45:52.009Z,73.94
2022-09-23T07:46:52.393Z,74.15
2022-09-23T07:47:52.517Z,74.15
2022-09-23T07:48:52.797Z,74.01
2022-09-23T07:49:53.159Z,73.71
2022-09-23T07:50:53.391Z,73.40
2022-09-23T07:51:53.665Z,73.26
2022-09-23T07:52:53.970Z,72.86
2022-09-23T07:53:54.180Z,72.75
2022-09-23T07:54:54.442Z,72.45
2022-09-23T07:55:54.697Z,72.04
2022-09-23T07:56:54.993Z,71.80
2022-09-23T07:57:55.278Z,71.60
2022-09-23T07:58:55.644Z,71.40
2022-09-23T07:59:55.872Z,71.26
2022-09-23T08:00:56.121Z,70.96
2022-09-23T08:01:56.424Z,70.65
2022-09-23T08:02:56.745Z,70.65
2022-09-23T08:03:56.937Z,70.62
2022-09-23T08:04:57.187Z,70.72
2022-09-23T08:05:57.466Z,70.82
2022-09-23T08:06:57.768Z,70.62
2022-09-23T08:07:58.051Z,70.42
2022-09-23T08:08:58.330Z,70.31
2022-09-23T08:09:58.574Z,70.62
2022-09-23T08:10:58.824Z,70.52
2022-09-23T08:11:59.088Z,68.79
2022-09-23T08:12:59.387Z,68.89
2022-09-23T08:13:59.663Z,68.86
2022-09-23T08:14:59.920Z,68.25
2022-09-23T08:16:00.239Z,67.91
2022-09-23T08:17:00.435Z,67.71
2022-09-23T08:18:00.801Z,67.27
2022-09-23T08:19:01.137Z,66.26
2022-09-23T08:20:01.250Z,66.33
2022-09-23T08:21:01.500Z,65.52
2022-09-23T08:22:01.728Z,64.40
2022-09-23T08:23:02.059Z,65.08
2022-09-23T08:24:02.267Z,65.48
2022-09-23T08:25:02.617Z,65.02
2022-09-23T08:26:02.877Z,64.41
2022-09-23T08:27:03.163Z,63.95
2022-09-23T08:28:03.511Z,63.34
2022-09-23T08:29:03.844Z,63.24
2022-09-23T08:30:04.031Z,62.50
2022-09-23T08:31:04.375Z,62.30
2022-09-23T08:32:04.579Z,61.87
2022-09-23T08:33:05.350Z,61.76
2022-09-23T08:34:05.247Z,61.05
2022-09-23T08:35:05.511Z,60.22
2022-09-23T08:36:05.759Z,60.22
2022-09-23T08:37:05.988Z,60.29
2022-09-23T08:38:06.306Z,60.32
2022-09-23T08:39:06.598Z,60.29
2022-09-23T08:40:06.842Z,60.09
2022-09-23T08:41:07.095Z,59.35
2022-09-23T08:42:07.332Z,59.15
2022-09-23T08:43:07.607Z,58.82
2022-09-23T08:44:07.835Z,58.54
2022-09-23T08:45:08.182Z,60.02
2022-09-23T08:46:08.456Z,61.46
2022-09-23T08:47:08.661Z,60.85
2022-09-23T08:48:12.867Z,60.78
2022-09-23T08:49:09.312Z,60.88
2022-09-23T08:50:09.559Z,60.58
2022-09-23T08:51:10.256Z,60.55
2022-09-23T08:52:10.181Z,60.45
2022-09-23T08:53:10.436Z,60.45
2022-09-23T08:54:10.696Z,59.97
2022-09-23T08:55:10.912Z,60.48
2022-09-23T08:56:11.273Z,60.48
2022-09-23T08:57:11.525Z,60.48
2022-09-23T08:58:25.036Z,60.07
2022-09-23T08:59:13.092Z,60.48
2022-09-23T09:00:12.400Z,60.27
2022-09-23T09:01:12.707Z,59.94
2022-09-23T09:02:12.965Z,59.56
2022-09-23T09:03:13.395Z,60.00
2022-09-23T09:04:13.474Z,61.44
2022-09-23T09:05:13.720Z,61.75
2022-09-23T09:06:14.047Z,61.44
2022-09-23T09:08:15.523Z,61.75
2022-09-23T09:09:14.909Z,61.55
2022-09-23T09:10:15.177Z,60.91
2022-09-23T09:11:15.411Z,61.11
2022-09-23T09:12:15.706Z,61.01
2022-09-23T09:13:16.023Z,60.78
2022-09-23T09:14:16.378Z,60.38
2022-09-23T09:15:16.803Z,60.35
2022-09-23T09:16:18.803Z,59.71
2022-09-23T09:17:18.143Z,58.70
2022-09-23T09:18:17.517Z,58.37
2022-09-23T09:19:17.731Z,57.51
2022-09-23T09:20:18.083Z,56.37
2022-09-23T09:21:18.305Z,55.24
2022-09-23T09:22:18.571Z,54.50
2022-09-23T09:23:18.876Z,54.53
2022-09-23T09:24:19.142Z,54.73
2022-09-23T09:25:19.357Z,55.14
2022-09-23T09:26:19.687Z,55.57
2022-09-23T09:27:20.086Z,55.66
2022-09-23T09:28:20.342Z,56.17
2022-09-23T09:29:34.950Z,56.17
2022-09-23T09:30:21.759Z,55.94
2022-09-23T09:31:21.131Z,56.15
2022-09-23T09:32:21.230Z,56.24
2022-09-23T09:33:21.631Z,56.57
2022-09-23T09:34:21.910Z,56.98
2022-09-23T09:35:22.153Z,56.77
2022-09-23T09:36:22.612Z,57.51
2022-09-23T09:37:22.852Z,57.91
2022-09-23T09:38:23.109Z,57.81
2022-09-23T09:39:26.244Z,58.14
2022-09-23T09:40:23.879Z,58.25
2022-09-23T09:41:23.938Z,57.91
2022-09-23T09:42:24.252Z,57.41
2022-09-23T09:43:24.539Z,57.10
2022-09-23T09:44:24.763Z,56.81
2022-09-23T09:45:25.003Z,56.83
2022-09-23T09:46:25.439Z,57.76
2022-09-23T09:47:25.533Z,58.00
2022-09-23T09:48:25.819Z,58.00
2022-09-23T09:49:26.267Z,58.40
2022-09-23T09:50:27.024Z,58.30
2022-09-23T09:51:26.661Z,58.27
2022-09-23T09:52:26.986Z,57.46
2022-09-23T09:53:27.190Z,56.83
2022-09-23T09:54:27.476Z,56.40
2022-09-23T09:55:27.707Z,55.99
2022-09-23T09:56:28.226Z,55.79
2022-09-23T09:57:32.173Z,55.57
2022-09-23T09:58:29.608Z,55.99
2022-09-23T09:59:28.866Z,55.87
2022-09-23T10:00:29.098Z,55.34
2022-09-23T10:01:29.513Z,55.04
2022-09-23T10:02:29.616Z,54.53
2022-09-23T10:03:29.863Z,54.50
2022-09-23T10:04:30.397Z,54.50
2022-09-23T10:05:30.415Z,54.61
2022-09-23T10:06:30.763Z,54.18
2022-09-23T10:07:31.177Z,53.75
2022-09-23T10:08:31.435Z,53.25
2022-09-23T10:09:31.701Z,52.92
2022-09-23T10:10:33.265Z,52.82
2022-09-23T10:11:32.293Z,52.49
2022-09-23T10:12:32.524Z,52.09
2022-09-23T10:13:32.765Z,51.56
2022-09-23T10:14:33.184Z,50.73
2022-09-23T10:15:33.282Z,49.43
2022-09-23T10:16:33.626Z,47.46
2022-09-23T10:17:33.833Z,46.19
2022-09-23T10:18:34.162Z,44.95
2022-09-23T10:19:34.439Z,43.89
2022-09-23T10:20:34.627Z,42.97
2022-09-23T10:21:34.882Z,41.93
2022-09-23T10:22:35.154Z,41.74
2022-09-23T10:23:35.398Z,41.24
2022-09-23T10:24:35.621Z,40.90
2022-09-23T10:25:35.869Z,41.02
2022-09-23T10:26:36.176Z,41.00
2022-09-23T10:27:36.361Z,40.88
2022-09-23T10:28:36.625Z,40.08
2022-09-23T10:29:36.941Z,39.90
2022-09-23T10:30:37.269Z,40.30
2022-09-23T10:31:37.415Z,39.97
2022-09-23T10:32:37.667Z,38.95
2022-09-23T10:33:37.913Z,39.23
2022-09-23T10:34:38.165Z,38.71
2022-09-23T10:35:38.410Z,37.77
2022-09-23T10:36:42.447Z,36.96
2022-09-23T10:37:39.966Z,36.35
2022-09-23T10:38:39.257Z,36.52
2022-09-23T10:39:39.514Z,36.11
2022-09-23T10:40:39.823Z,36.11
2022-09-23T10:41:40.139Z,36.19
2022-09-23T10:42:40.438Z,36.13
2022-09-23T10:43:40.664Z,36.54
2022-09-23T10:44:40.978Z,37.49
2022-09-23T10:45:43.293Z,38.71
2022-09-23T10:46:42.489Z,37.79
2022-09-23T10:47:41.733Z,37.37
2022-09-23T10:48:42.042Z,36.74
2022-09-23T10:49:42.335Z,36.43
2022-09-23T10:50:42.684Z,36.19
2022-09-23T10:51:42.888Z,35.60
2022-09-23T10:52:43.192Z,35.85
2022-09-23T10:53:43.466Z,37.51
2022-09-23T10:54:43.723Z,38.62
2022-09-23T10:55:44.039Z,38.60
2022-09-23T10:56:44.333Z,38.20
2022-09-23T10:57:44.603Z,39.01
2022-09-23T10:58:44.981Z,39.11
2022-09-23T10:59:45.172Z,39.63
2022-09-23T11:00:45.467Z,39.01
2022-09-23T11:01:45.787Z,39.01
2022-09-23T11:02:46.118Z,38.28
2022-09-23T11:03:46.426Z,38.60
2022-09-23T11:04:46.756Z,38.46
2022-09-23T11:05:47.008Z,37.98
2022-09-23T11:06:47.304Z,37.75
2022-09-23T11:07:47.666Z,37.75
2022-09-23T11:08:47.980Z,37.43
2022-09-23T11:09:48.191Z,37.53
2022-09-23T11:10:48.579Z,37.75
2022-09-23T11:11:49.074Z,37.75
2022-09-23T11:12:49.017Z,37.04
2022-09-23T11:13:54.105Z,38.40
2022-09-23T11:14:50.549Z,38.20
2022-09-23T11:15:50.720Z,38.71
2022-09-23T11:16:50.277Z,39.29
2022-09-23T11:17:50.393Z,38.56
2022-09-23T11:18:50.612Z,37.93
2022-09-23T11:19:50.949Z,37.40
2022-09-23T11:20:51.237Z,37.08
2022-09-23T11:21:51.540Z,36.71
2022-09-23T11:22:51.782Z,37.34
2022-09-23T11:23:52.047Z,37.02
2022-09-23T11:24:52.338Z,37.77
2022-09-23T11:25:52.536Z,38.48
2022-09-23T11:26:52.831Z,38.28
2022-09-23T11:27:53.187Z,38.90
2022-09-23T11:28:53.397Z,39.19
2022-09-23T11:29:53.665Z,38.96
2022-09-23T11:30:54.035Z,38.05
2022-09-23T11:31:58.825Z,38.05
2022-09-23T11:32:55.595Z,38.46
2022-09-23T11:33:54.663Z,38.44
2022-09-23T11:34:55.199Z,38.07
2022-09-23T11:35:55.177Z,39.00
2022-09-23T11:36:55.506Z,39.53
2022-09-23T11:37:55.702Z,39.29
2022-09-23T11:38:56.054Z,38.76
2022-09-23T11:39:56.246Z,37.47
2022-09-23T11:40:56.541Z,38.42
2022-09-23T11:41:56.884Z,39.19
2022-09-23T11:42:57.110Z,39.19
2022-09-23T11:43:57.427Z,40.05
2022-09-23T11:44:58.194Z,40.76
2022-09-23T11:45:57.973Z,40.03
2022-09-23T11:46:58.195Z,38.92
2022-09-23T11:47:58.465Z,39.61
2022-09-23T11:48:58.750Z,39.06
2022-09-23T11:49:58.969Z,37.95
2022-09-23T11:50:59.283Z,38.17
2022-09-23T11:51:59.651Z,38.88
2022-09-23T11:52:59.908Z,39.07
2022-09-23T11:54:00.279Z,38.96
2022-09-23T11:55:02.175Z,38.76
2022-09-23T11:56:00.706Z,38.66
2022-09-23T11:57:00.950Z,38.66
2022-09-23T11:58:01.472Z,38.50
2022-09-23T11:59:01.503Z,39.90
2022-09-23T12:00:01.825Z,39.07
2022-09-23T12:01:02.057Z,39.07
2022-09-23T12:02:14.424Z,39.17
2022-09-23T12:03:06.325Z,39.37
2022-09-23T12:04:15.687Z,38.85
2022-09-23T12:05:04.753Z,38.24
2022-09-23T12:06:03.437Z,38.34
2022-09-23T12:07:03.633Z,38.88
2022-09-23T12:08:03.866Z,39.73
2022-09-23T12:09:04.325Z,40.82
2022-09-23T12:10:04.597Z,39.90
2022-09-23T12:11:04.813Z,39.39
2022-09-23T12:12:05.035Z,39.17
2022-09-23T12:13:05.311Z,38.96
2022-09-23T12:14:05.650Z,39.37
2022-09-23T12:15:05.926Z,38.66
2022-09-23T12:16:06.171Z,38.03
2022-09-23T12:17:06.613Z,37.53
2022-09-23T12:18:06.779Z,37.41
2022-09-23T12:19:07.031Z,37.41
2022-09-23T12:20:07.297Z,37.83
2022-09-23T12:21:07.565Z,37.71
2022-09-23T12:22:08.027Z,37.60
2022-09-23T12:23:08.090Z,37.08
2022-09-23T12:24:08.368Z,36.47
2022-09-23T12:25:08.596Z,36.39
2022-09-23T12:26:08.937Z,37.40
2022-09-23T12:27:09.225Z,37.71
2022-09-23T12:28:09.475Z,38.36
2022-09-23T12:29:09.731Z,39.73
2022-09-23T12:30:10.154Z,40.42
2022-09-23T12:31:10.400Z,41.16
2022-09-23T12:32:10.583Z,41.28
2022-09-23T12:33:10.806Z,41.97
2022-09-23T12:34:11.121Z,41.75
2022-09-23T12:35:11.364Z,41.77
2022-09-23T12:36:11.706Z,41.97
2022-09-23T12:37:12.011Z,42.51
2022-09-23T12:38:12.260Z,42.71
2022-09-23T12:39:12.561Z,42.91
2022-09-23T12:40:12.878Z,43.13
2022-09-23T12:41:13.148Z,43.45
2022-09-23T12:42:13.436Z,43.95
2022-09-23T12:43:13.700Z,44.37
2022-09-23T12:44:13.944Z,44.37
2022-09-23T12:45:14.234Z,45.39
2022-09-23T12:46:14.541Z,45.71
2022-09-23T12:47:14.836Z,45.71
2022-09-23T12:48:15.057Z,45.29
2022-09-23T12:49:15.403Z,44.96
2022-09-23T12:50:18.403Z,44.15
2022-09-23T12:51:15.918Z,43.71
2022-09-23T12:52:16.366Z,43.08
2022-09-23T12:53:16.460Z,42.89
2022-09-23T12:54:16.770Z,42.77
2022-09-23T12:55:17.039Z,41.95
2022-09-23T12:56:17.284Z,42.17
2022-09-23T12:57:17.517Z,42.49